sensor_id;sensor_type;location;lat;lon;timestamp;P1;durP1;ratioP1;P2;durP2;ratioP2
53961;SDS011;39868;53.398;6.564;2024-01-30T00:01:13;15.93;;;14.47;;
53961;SDS011;39868;53.398;6.564;2024-01-30T00:03:40;15.70;;;14.57;;
53961;SDS011;39868;53.398;6.564;2024-01-30T00:06:08;15.83;;;14.43;;
53961;SDS011;39868;53.398;6.564;2024-01-30T00:08:35;16.90;;;15.43;;
53961;SDS011;39868;53.398;6.564;2024-01-30T00:11:02;16.57;;;15.10;;
53961;SDS011;39868;53.398;6.564;2024-01-30T00:13:30;16.13;;;14.83;;
53961;SDS011;39868;53.398;6.564;2024-01-30T00:15:57;16.80;;;15.23;;
53961;SDS011;39868;53.398;6.564;2024-01-30T00:18:24;16.93;;;15.33;;
53961;SDS011;39868;53.398;6.564;2024-01-30T00:20:52;16.60;;;15.10;;
53961;SDS011;39868;53.398;6.564;2024-01-30T00:23:19;17.43;;;15.87;;
53961;SDS011;39868;53.398;6.564;2024-01-30T00:25:46;15.43;;;14.13;;
53961;SDS011;39868;53.398;6.564;2024-01-30T00:28:13;16.97;;;15.57;;
53961;SDS011;39868;53.398;6.564;2024-01-30T00:30:41;15.97;;;14.70;;
53961;SDS011;39868;53.398;6.564;2024-01-30T00:33:08;16.17;;;14.80;;
53961;SDS011;39868;53.398;6.564;2024-01-30T00:35:36;16.50;;;14.93;;
53961;SDS011;39868;53.398;6.564;2024-01-30T00:38:03;16.37;;;15.10;;
53961;SDS011;39868;53.398;6.564;2024-01-30T00:40:30;16.47;;;14.87;;
53961;SDS011;39868;53.398;6.564;2024-01-30T00:42:57;17.43;;;15.70;;
53961;SDS011;39868;53.398;6.564;2024-01-30T00:45:25;16.10;;;14.70;;
53961;SDS011;39868;53.398;6.564;2024-01-30T00:47:52;16.60;;;15.13;;
53961;SDS011;39868;53.398;6.564;2024-01-30T00:50:20;16.53;;;15.03;;
53961;SDS011;39868;53.398;6.564;2024-01-30T00:52:47;17.00;;;15.50;;
53961;SDS011;39868;53.398;6.564;2024-01-30T00:55:14;17.33;;;15.80;;
53961;SDS011;39868;53.398;6.564;2024-01-30T00:57:42;17.63;;;15.93;;
53961;SDS011;39868;53.398;6.564;2024-01-30T01:00:11;16.00;;;14.60;;
53961;SDS011;39868;53.398;6.564;2024-01-30T01:02:39;15.87;;;14.40;;
53961;SDS011;39868;53.398;6.564;2024-01-30T01:05:07;15.57;;;14.27;;
53961;SDS011;39868;53.398;6.564;2024-01-30T01:07:35;15.77;;;14.27;;
53961;SDS011;39868;53.398;6.564;2024-01-30T01:10:02;15.33;;;13.77;;
53961;SDS011;39868;53.398;6.564;2024-01-30T01:12:30;16.60;;;14.90;;
53961;SDS011;39868;53.398;6.564;2024-01-30T01:14:57;15.53;;;14.07;;
53961;SDS011;39868;53.398;6.564;2024-01-30T01:17:24;16.50;;;15.00;;
53961;SDS011;39868;53.398;6.564;2024-01-30T01:19:52;16.27;;;14.77;;
53961;SDS011;39868;53.398;6.564;2024-01-30T01:22:19;17.23;;;15.80;;
53961;SDS011;39868;53.398;6.564;2024-01-30T01:24:46;17.87;;;16.07;;
53961;SDS011;39868;53.398;6.564;2024-01-30T01:27:14;18.37;;;16.33;;
53961;SDS011;39868;53.398;6.564;2024-01-30T01:29:41;16.63;;;15.23;;
53961;SDS011;39868;53.398;6.564;2024-01-30T01:32:08;18.00;;;16.40;;
53961;SDS011;39868;53.398;6.564;2024-01-30T01:34:35;16.67;;;15.47;;
53961;SDS011;39868;53.398;6.564;2024-01-30T01:37:03;18.37;;;16.43;;
53961;SDS011;39868;53.398;6.564;2024-01-30T01:39:30;17.27;;;15.87;;
53961;SDS011;39868;53.398;6.564;2024-01-30T01:41:57;17.23;;;15.67;;
53961;SDS011;39868;53.398;6.564;2024-01-30T01:44:25;16.63;;;15.13;;
53961;SDS011;39868;53.398;6.564;2024-01-30T01:46:52;16.90;;;15.43;;
53961;SDS011;39868;53.398;6.564;2024-01-30T01:49:20;17.33;;;15.70;;
53961;SDS011;39868;53.398;6.564;2024-01-30T01:51:49;17.80;;;16.17;;
53961;SDS011;39868;53.398;6.564;2024-01-30T01:54:19;17.00;;;15.43;;
53961;SDS011;39868;53.398;6.564;2024-01-30T01:56:46;18.00;;;16.50;;
53961;SDS011;39868;53.398;6.564;2024-01-30T01:59:14;17.00;;;15.37;;
53961;SDS011;39868;53.398;6.564;2024-01-30T02:01:42;17.77;;;16.07;;
53961;SDS011;39868;53.398;6.564;2024-01-30T02:04:09;18.70;;;16.97;;
53961;SDS011;39868;53.398;6.564;2024-01-30T02:06:37;17.43;;;15.83;;
53961;SDS011;39868;53.398;6.564;2024-01-30T02:09:05;18.03;;;16.33;;
53961;SDS011;39868;53.398;6.564;2024-01-30T02:11:32;18.27;;;16.63;;
53961;SDS011;39868;53.398;6.564;2024-01-30T02:14:03;17.57;;;16.00;;
53961;SDS011;39868;53.398;6.564;2024-01-30T02:16:31;16.73;;;15.37;;
53961;SDS011;39868;53.398;6.564;2024-01-30T02:18:59;16.50;;;14.93;;
53961;SDS011;39868;53.398;6.564;2024-01-30T02:21:26;18.00;;;16.30;;
53961;SDS011;39868;53.398;6.564;2024-01-30T02:23:54;18.03;;;16.33;;
53961;SDS011;39868;53.398;6.564;2024-01-30T02:26:22;17.83;;;16.30;;
53961;SDS011;39868;53.398;6.564;2024-01-30T02:28:50;17.73;;;16.07;;
53961;SDS011;39868;53.398;6.564;2024-01-30T02:31:17;17.60;;;15.83;;
53961;SDS011;39868;53.398;6.564;2024-01-30T02:33:44;17.97;;;16.17;;
53961;SDS011;39868;53.398;6.564;2024-01-30T02:36:12;17.97;;;16.33;;
53961;SDS011;39868;53.398;6.564;2024-01-30T02:38:39;16.90;;;15.40;;
53961;SDS011;39868;53.398;6.564;2024-01-30T02:41:06;17.67;;;16.10;;
53961;SDS011;39868;53.398;6.564;2024-01-30T02:43:34;18.20;;;16.40;;
53961;SDS011;39868;53.398;6.564;2024-01-30T02:46:01;18.13;;;16.37;;
53961;SDS011;39868;53.398;6.564;2024-01-30T02:48:28;18.97;;;17.30;;
53961;SDS011;39868;53.398;6.564;2024-01-30T02:50:55;18.47;;;16.87;;
53961;SDS011;39868;53.398;6.564;2024-01-30T02:53:24;18.63;;;16.73;;
53961;SDS011;39868;53.398;6.564;2024-01-30T02:55:51;18.53;;;16.90;;
53961;SDS011;39868;53.398;6.564;2024-01-30T02:58:19;18.70;;;17.07;;
53961;SDS011;39868;53.398;6.564;2024-01-30T03:00:46;19.17;;;17.27;;
53961;SDS011;39868;53.398;6.564;2024-01-30T03:03:13;18.70;;;17.10;;
53961;SDS011;39868;53.398;6.564;2024-01-30T03:05:41;18.47;;;16.87;;
53961;SDS011;39868;53.398;6.564;2024-01-30T03:08:08;19.57;;;17.67;;
53961;SDS011;39868;53.398;6.564;2024-01-30T03:10:35;19.97;;;16.77;;
53961;SDS011;39868;53.398;6.564;2024-01-30T03:13:03;19.80;;;18.10;;
53961;SDS011;39868;53.398;6.564;2024-01-30T03:15:30;19.17;;;17.37;;
53961;SDS011;39868;53.398;6.564;2024-01-30T03:17:57;18.60;;;16.67;;
53961;SDS011;39868;53.398;6.564;2024-01-30T03:20:25;17.97;;;16.43;;
53961;SDS011;39868;53.398;6.564;2024-01-30T03:22:53;19.77;;;17.00;;
53961;SDS011;39868;53.398;6.564;2024-01-30T03:25:21;19.47;;;17.60;;
53961;SDS011;39868;53.398;6.564;2024-01-30T03:27:49;18.13;;;16.43;;
53961;SDS011;39868;53.398;6.564;2024-01-30T03:30:16;18.77;;;17.07;;
53961;SDS011;39868;53.398;6.564;2024-01-30T03:32:44;18.53;;;16.93;;
53961;SDS011;39868;53.398;6.564;2024-01-30T03:35:11;19.23;;;17.47;;
53961;SDS011;39868;53.398;6.564;2024-01-30T03:37:38;17.97;;;16.47;;
53961;SDS011;39868;53.398;6.564;2024-01-30T03:40:05;18.10;;;16.60;;
53961;SDS011;39868;53.398;6.564;2024-01-30T03:42:34;17.70;;;16.07;;
53961;SDS011;39868;53.398;6.564;2024-01-30T03:45:01;18.73;;;17.13;;
53961;SDS011;39868;53.398;6.564;2024-01-30T03:47:29;19.30;;;17.43;;
53961;SDS011;39868;53.398;6.564;2024-01-30T03:49:56;18.57;;;17.03;;
53961;SDS011;39868;53.398;6.564;2024-01-30T03:52:23;18.07;;;16.67;;
53961;SDS011;39868;53.398;6.564;2024-01-30T03:54:50;18.63;;;16.90;;
53961;SDS011;39868;53.398;6.564;2024-01-30T03:57:18;18.43;;;16.60;;
53961;SDS011;39868;53.398;6.564;2024-01-30T03:59:45;18.17;;;16.57;;
53961;SDS011;39868;53.398;6.564;2024-01-30T04:02:12;19.47;;;17.77;;
53961;SDS011;39868;53.398;6.564;2024-01-30T04:04:39;19.30;;;17.60;;
53961;SDS011;39868;53.398;6.564;2024-01-30T04:07:07;18.10;;;16.50;;
53961;SDS011;39868;53.398;6.564;2024-01-30T04:09:34;18.47;;;16.77;;
53961;SDS011;39868;53.398;6.564;2024-01-30T04:12:02;18.43;;;16.63;;
53961;SDS011;39868;53.398;6.564;2024-01-30T04:14:30;18.20;;;16.53;;
53961;SDS011;39868;53.398;6.564;2024-01-30T04:16:57;18.10;;;16.47;;
53961;SDS011;39868;53.398;6.564;2024-01-30T04:19:24;19.03;;;17.23;;
53961;SDS011;39868;53.398;6.564;2024-01-30T04:21:52;18.80;;;17.17;;
53961;SDS011;39868;53.398;6.564;2024-01-30T04:24:19;18.53;;;17.03;;
53961;SDS011;39868;53.398;6.564;2024-01-30T04:26:46;18.53;;;16.80;;
53961;SDS011;39868;53.398;6.564;2024-01-30T04:29:13;18.87;;;17.27;;
53961;SDS011;39868;53.398;6.564;2024-01-30T04:31:41;18.30;;;16.70;;
53961;SDS011;39868;53.398;6.564;2024-01-30T04:34:08;18.27;;;16.77;;
53961;SDS011;39868;53.398;6.564;2024-01-30T04:36:35;18.90;;;17.17;;
53961;SDS011;39868;53.398;6.564;2024-01-30T04:39:03;19.10;;;17.20;;
53961;SDS011;39868;53.398;6.564;2024-01-30T04:41:30;17.93;;;16.40;;
53961;SDS011;39868;53.398;6.564;2024-01-30T04:43:58;19.43;;;17.73;;
53961;SDS011;39868;53.398;6.564;2024-01-30T04:46:26;19.90;;;18.30;;
53961;SDS011;39868;53.398;6.564;2024-01-30T04:48:53;19.00;;;17.40;;
53961;SDS011;39868;53.398;6.564;2024-01-30T04:51:20;19.07;;;17.40;;
53961;SDS011;39868;53.398;6.564;2024-01-30T04:53:47;19.83;;;18.10;;
53961;SDS011;39868;53.398;6.564;2024-01-30T04:56:15;19.20;;;17.37;;
53961;SDS011;39868;53.398;6.564;2024-01-30T04:58:42;19.87;;;18.07;;
53961;SDS011;39868;53.398;6.564;2024-01-30T05:01:10;19.17;;;17.60;;
53961;SDS011;39868;53.398;6.564;2024-01-30T05:06:10;20.37;;;18.50;;
53961;SDS011;39868;53.398;6.564;2024-01-30T05:08:37;20.45;;;18.55;;
53961;SDS011;39868;53.398;6.564;2024-01-30T05:11:05;19.85;;;18.15;;
53961;SDS011;39868;53.398;6.564;2024-01-30T05:13:32;19.38;;;17.77;;
53961;SDS011;39868;53.398;6.564;2024-01-30T05:16:01;20.23;;;18.47;;
53961;SDS011;39868;53.398;6.564;2024-01-30T05:18:30;20.55;;;18.67;;
53961;SDS011;39868;53.398;6.564;2024-01-30T05:20:57;19.70;;;18.05;;
53961;SDS011;39868;53.398;6.564;2024-01-30T05:23:24;20.47;;;18.77;;
53961;SDS011;39868;53.398;6.564;2024-01-30T05:25:52;19.10;;;17.60;;
53961;SDS011;39868;53.398;6.564;2024-01-30T05:28:19;19.85;;;18.38;;
53961;SDS011;39868;53.398;6.564;2024-01-30T05:30:46;20.33;;;18.40;;
53961;SDS011;39868;53.398;6.564;2024-01-30T05:33:14;20.38;;;18.67;;
53961;SDS011;39868;53.398;6.564;2024-01-30T05:35:41;19.35;;;17.88;;
53961;SDS011;39868;53.398;6.564;2024-01-30T05:38:08;20.30;;;18.70;;
53961;SDS011;39868;53.398;6.564;2024-01-30T05:40:35;19.90;;;18.23;;
53961;SDS011;39868;53.398;6.564;2024-01-30T05:43:03;19.88;;;18.27;;
53961;SDS011;39868;53.398;6.564;2024-01-30T05:45:30;20.15;;;18.45;;
53961;SDS011;39868;53.398;6.564;2024-01-30T05:47:57;21.10;;;19.25;;
53961;SDS011;39868;53.398;6.564;2024-01-30T05:50:24;21.10;;;19.08;;
53961;SDS011;39868;53.398;6.564;2024-01-30T05:52:53;22.17;;;20.17;;
53961;SDS011;39868;53.398;6.564;2024-01-30T05:55:20;21.77;;;19.70;;
53961;SDS011;39868;53.398;6.564;2024-01-30T05:57:47;20.40;;;18.70;;
53961;SDS011;39868;53.398;6.564;2024-01-30T06:00:15;21.15;;;19.35;;
53961;SDS011;39868;53.398;6.564;2024-01-30T06:02:42;21.58;;;19.65;;
53961;SDS011;39868;53.398;6.564;2024-01-30T06:05:09;21.48;;;19.75;;
53961;SDS011;39868;53.398;6.564;2024-01-30T06:07:37;21.27;;;19.33;;
53961;SDS011;39868;53.398;6.564;2024-01-30T06:10:05;21.25;;;19.35;;
53961;SDS011;39868;53.398;6.564;2024-01-30T06:12:33;20.75;;;19.05;;
53961;SDS011;39868;53.398;6.564;2024-01-30T06:15:01;21.50;;;19.55;;
53961;SDS011;39868;53.398;6.564;2024-01-30T06:17:29;21.02;;;19.02;;
53961;SDS011;39868;53.398;6.564;2024-01-30T06:19:56;22.48;;;20.52;;
53961;SDS011;39868;53.398;6.564;2024-01-30T06:22:23;22.63;;;20.67;;
53961;SDS011;39868;53.398;6.564;2024-01-30T06:24:50;22.02;;;20.02;;
53961;SDS011;39868;53.398;6.564;2024-01-30T06:27:18;23.00;;;20.75;;
53961;SDS011;39868;53.398;6.564;2024-01-30T06:29:45;22.48;;;20.08;;
53961;SDS011;39868;53.398;6.564;2024-01-30T06:32:12;21.75;;;20.08;;
53961;SDS011;39868;53.398;6.564;2024-01-30T06:34:40;21.40;;;19.45;;
53961;SDS011;39868;53.398;6.564;2024-01-30T06:37:08;21.23;;;19.00;;
53961;SDS011;39868;53.398;6.564;2024-01-30T06:39:44;20.77;;;18.98;;
53961;SDS011;39868;53.398;6.564;2024-01-30T06:42:11;22.23;;;20.02;;
53961;SDS011;39868;53.398;6.564;2024-01-30T06:44:38;20.17;;;18.48;;
53961;SDS011;39868;53.398;6.564;2024-01-30T06:47:05;21.45;;;19.65;;
53961;SDS011;39868;53.398;6.564;2024-01-30T06:49:33;21.45;;;19.58;;
53961;SDS011;39868;53.398;6.564;2024-01-30T06:52:00;21.77;;;19.73;;
53961;SDS011;39868;53.398;6.564;2024-01-30T06:54:27;21.48;;;19.48;;
53961;SDS011;39868;53.398;6.564;2024-01-30T06:56:54;20.90;;;19.05;;
53961;SDS011;39868;53.398;6.564;2024-01-30T06:59:22;21.52;;;19.33;;
53961;SDS011;39868;53.398;6.564;2024-01-30T07:01:49;21.25;;;19.45;;
53961;SDS011;39868;53.398;6.564;2024-01-30T07:04:16;21.40;;;19.35;;
53961;SDS011;39868;53.398;6.564;2024-01-30T07:06:45;21.30;;;19.50;;
53961;SDS011;39868;53.398;6.564;2024-01-30T07:09:13;21.42;;;19.73;;
53961;SDS011;39868;53.398;6.564;2024-01-30T07:11:40;20.63;;;18.88;;
53961;SDS011;39868;53.398;6.564;2024-01-30T07:14:09;21.50;;;19.60;;
53961;SDS011;39868;53.398;6.564;2024-01-30T07:16:39;21.88;;;19.92;;
53961;SDS011;39868;53.398;6.564;2024-01-30T07:19:06;19.10;;;17.63;;
53961;SDS011;39868;53.398;6.564;2024-01-30T07:21:36;20.70;;;18.85;;
53961;SDS011;39868;53.398;6.564;2024-01-30T07:24:03;20.17;;;18.55;;
53961;SDS011;39868;53.398;6.564;2024-01-30T07:26:30;20.55;;;18.88;;
53961;SDS011;39868;53.398;6.564;2024-01-30T07:28:58;20.52;;;18.92;;
53961;SDS011;39868;53.398;6.564;2024-01-30T07:31:25;21.30;;;19.35;;
53961;SDS011;39868;53.398;6.564;2024-01-30T07:33:55;20.13;;;18.50;;
53961;SDS011;39868;53.398;6.564;2024-01-30T07:36:22;20.27;;;18.70;;
53961;SDS011;39868;53.398;6.564;2024-01-30T07:38:50;20.55;;;18.70;;
53961;SDS011;39868;53.398;6.564;2024-01-30T07:41:17;19.58;;;17.77;;
53961;SDS011;39868;53.398;6.564;2024-01-30T07:43:44;20.10;;;18.33;;
53961;SDS011;39868;53.398;6.564;2024-01-30T07:46:11;19.83;;;18.13;;
53961;SDS011;39868;53.398;6.564;2024-01-30T07:48:38;20.13;;;18.38;;
53961;SDS011;39868;53.398;6.564;2024-01-30T07:51:06;19.52;;;18.10;;
53961;SDS011;39868;53.398;6.564;2024-01-30T07:53:33;20.48;;;18.50;;
53961;SDS011;39868;53.398;6.564;2024-01-30T07:56:00;19.00;;;17.38;;
53961;SDS011;39868;53.398;6.564;2024-01-30T07:58:27;19.98;;;18.27;;
53961;SDS011;39868;53.398;6.564;2024-01-30T08:00:55;20.17;;;18.30;;
53961;SDS011;39868;53.398;6.564;2024-01-30T08:03:25;19.50;;;17.80;;
53961;SDS011;39868;53.398;6.564;2024-01-30T08:05:53;18.95;;;17.30;;
53961;SDS011;39868;53.398;6.564;2024-01-30T08:08:20;20.20;;;18.30;;
53961;SDS011;39868;53.398;6.564;2024-01-30T08:10:47;20.17;;;18.40;;
53961;SDS011;39868;53.398;6.564;2024-01-30T08:13:15;18.52;;;16.98;;
53961;SDS011;39868;53.398;6.564;2024-01-30T08:15:43;19.60;;;18.00;;
53961;SDS011;39868;53.398;6.564;2024-01-30T08:18:10;20.75;;;18.95;;
53961;SDS011;39868;53.398;6.564;2024-01-30T08:20:37;19.50;;;17.80;;
53961;SDS011;39868;53.398;6.564;2024-01-30T08:23:05;19.35;;;17.77;;
53961;SDS011;39868;53.398;6.564;2024-01-30T08:25:32;19.90;;;18.30;;
53961;SDS011;39868;53.398;6.564;2024-01-30T08:27:59;19.30;;;17.85;;
53961;SDS011;39868;53.398;6.564;2024-01-30T08:30:27;19.30;;;17.60;;
53961;SDS011;39868;53.398;6.564;2024-01-30T08:32:55;19.27;;;17.48;;
53961;SDS011;39868;53.398;6.564;2024-01-30T08:35:22;19.55;;;17.85;;
53961;SDS011;39868;53.398;6.564;2024-01-30T08:37:50;19.77;;;18.10;;
53961;SDS011;39868;53.398;6.564;2024-01-30T08:40:17;20.48;;;18.42;;
53961;SDS011;39868;53.398;6.564;2024-01-30T08:42:45;19.48;;;17.83;;
53961;SDS011;39868;53.398;6.564;2024-01-30T08:45:12;21.02;;;18.98;;
53961;SDS011;39868;53.398;6.564;2024-01-30T08:47:40;20.33;;;18.42;;
53961;SDS011;39868;53.398;6.564;2024-01-30T08:50:07;19.63;;;17.83;;
53961;SDS011;39868;53.398;6.564;2024-01-30T08:52:35;20.02;;;18.23;;
53961;SDS011;39868;53.398;6.564;2024-01-30T08:55:03;21.80;;;19.38;;
53961;SDS011;39868;53.398;6.564;2024-01-30T08:57:31;20.05;;;18.25;;
53961;SDS011;39868;53.398;6.564;2024-01-30T08:59:58;19.58;;;17.95;;
53961;SDS011;39868;53.398;6.564;2024-01-30T09:02:33;19.10;;;17.50;;
53961;SDS011;39868;53.398;6.564;2024-01-30T09:05:03;22.48;;;20.23;;
53961;SDS011;39868;53.398;6.564;2024-01-30T09:07:31;19.67;;;17.92;;
53961;SDS011;39868;53.398;6.564;2024-01-30T09:09:58;20.48;;;18.67;;
53961;SDS011;39868;53.398;6.564;2024-01-30T09:12:26;19.88;;;18.23;;
53961;SDS011;39868;53.398;6.564;2024-01-30T09:14:53;19.90;;;18.33;;
53961;SDS011;39868;53.398;6.564;2024-01-30T09:17:21;25.98;;;21.27;;
53961;SDS011;39868;53.398;6.564;2024-01-30T09:19:48;22.10;;;19.58;;
53961;SDS011;39868;53.398;6.564;2024-01-30T09:22:16;21.25;;;19.15;;
53961;SDS011;39868;53.398;6.564;2024-01-30T09:24:43;21.55;;;19.38;;
53961;SDS011;39868;53.398;6.564;2024-01-30T09:27:10;22.63;;;20.23;;
53961;SDS011;39868;53.398;6.564;2024-01-30T09:29:38;23.40;;;20.85;;
53961;SDS011;39868;53.398;6.564;2024-01-30T09:32:06;21.25;;;18.90;;
53961;SDS011;39868;53.398;6.564;2024-01-30T09:34:33;24.95;;;20.75;;
53961;SDS011;39868;53.398;6.564;2024-01-30T09:37:01;20.60;;;18.63;;
53961;SDS011;39868;53.398;6.564;2024-01-30T09:39:29;20.27;;;18.38;;
53961;SDS011;39868;53.398;6.564;2024-01-30T09:42:04;19.48;;;17.73;;
53961;SDS011;39868;53.398;6.564;2024-01-30T09:44:38;21.47;;;19.27;;
53961;SDS011;39868;53.398;6.564;2024-01-30T09:47:09;21.88;;;18.88;;
53961;SDS011;39868;53.398;6.564;2024-01-30T09:49:37;22.13;;;19.67;;
53961;SDS011;39868;53.398;6.564;2024-01-30T09:52:05;21.50;;;19.27;;
53961;SDS011;39868;53.398;6.564;2024-01-30T09:54:34;21.40;;;19.23;;
53961;SDS011;39868;53.398;6.564;2024-01-30T09:57:03;28.15;;;21.77;;
53961;SDS011;39868;53.398;6.564;2024-01-30T09:59:31;23.73;;;20.30;;
53961;SDS011;39868;53.398;6.564;2024-01-30T10:01:59;20.77;;;18.65;;
53961;SDS011;39868;53.398;6.564;2024-01-30T10:04:27;22.55;;;20.25;;
53961;SDS011;39868;53.398;6.564;2024-01-30T10:06:54;21.65;;;19.77;;
53961;SDS011;39868;53.398;6.564;2024-01-30T10:09:22;21.98;;;19.85;;
53961;SDS011;39868;53.398;6.564;2024-01-30T10:11:50;23.30;;;20.90;;
53961;SDS011;39868;53.398;6.564;2024-01-30T10:14:18;23.08;;;20.70;;
53961;SDS011;39868;53.398;6.564;2024-01-30T10:16:46;22.45;;;20.00;;
53961;SDS011;39868;53.398;6.564;2024-01-30T10:19:13;24.38;;;20.27;;
53961;SDS011;39868;53.398;6.564;2024-01-30T10:21:41;20.60;;;18.75;;
53961;SDS011;39868;53.398;6.564;2024-01-30T10:24:08;20.77;;;18.95;;
53961;SDS011;39868;53.398;6.564;2024-01-30T10:26:39;21.63;;;19.52;;
53961;SDS011;39868;53.398;6.564;2024-01-30T10:29:06;25.95;;;20.10;;
53961;SDS011;39868;53.398;6.564;2024-01-30T10:31:34;27.23;;;20.05;;
53961;SDS011;39868;53.398;6.564;2024-01-30T10:34:01;24.30;;;18.90;;
53961;SDS011;39868;53.398;6.564;2024-01-30T10:36:43;24.52;;;20.63;;
53961;SDS011;39868;53.398;6.564;2024-01-30T10:39:17;23.17;;;20.38;;
53961;SDS011;39868;53.398;6.564;2024-01-30T10:41:44;23.27;;;20.45;;
53961;SDS011;39868;53.398;6.564;2024-01-30T10:44:16;21.15;;;19.15;;
53961;SDS011;39868;53.398;6.564;2024-01-30T10:46:48;21.58;;;19.48;;
53961;SDS011;39868;53.398;6.564;2024-01-30T10:49:21;21.83;;;19.75;;
53961;SDS011;39868;53.398;6.564;2024-01-30T10:51:51;27.30;;;20.88;;
53961;SDS011;39868;53.398;6.564;2024-01-30T10:54:20;31.45;;;21.95;;
53961;SDS011;39868;53.398;6.564;2024-01-30T10:56:49;21.90;;;19.92;;
53961;SDS011;39868;53.398;6.564;2024-01-30T10:59:17;20.90;;;19.00;;
53961;SDS011;39868;53.398;6.564;2024-01-30T11:01:45;20.23;;;18.23;;
53961;SDS011;39868;53.398;6.564;2024-01-30T11:04:12;22.17;;;19.85;;
53961;SDS011;39868;53.398;6.564;2024-01-30T11:06:40;20.42;;;18.42;;
53961;SDS011;39868;53.398;6.564;2024-01-30T11:09:10;22.10;;;19.85;;
53961;SDS011;39868;53.398;6.564;2024-01-30T11:11:51;22.13;;;19.90;;
53961;SDS011;39868;53.398;6.564;2024-01-30T11:14:28;20.55;;;18.70;;
53961;SDS011;39868;53.398;6.564;2024-01-30T11:16:59;20.42;;;18.67;;
53961;SDS011;39868;53.398;6.564;2024-01-30T11:19:27;19.85;;;17.63;;
53961;SDS011;39868;53.398;6.564;2024-01-30T11:21:58;17.33;;;16.15;;
53961;SDS011;39868;53.398;6.564;2024-01-30T11:24:27;16.67;;;15.35;;
53961;SDS011;39868;53.398;6.564;2024-01-30T11:27:01;15.68;;;14.77;;
53961;SDS011;39868;53.398;6.564;2024-01-30T11:29:34;15.60;;;14.45;;
53961;SDS011;39868;53.398;6.564;2024-01-30T11:32:02;15.23;;;14.13;;
53961;SDS011;39868;53.398;6.564;2024-01-30T11:34:29;14.98;;;13.88;;
53961;SDS011;39868;53.398;6.564;2024-01-30T11:36:59;16.05;;;14.60;;
53961;SDS011;39868;53.398;6.564;2024-01-30T11:39:36;15.18;;;14.02;;
53961;SDS011;39868;53.398;6.564;2024-01-30T11:42:04;15.98;;;14.45;;
53961;SDS011;39868;53.398;6.564;2024-01-30T11:44:35;13.55;;;12.70;;
53961;SDS011;39868;53.398;6.564;2024-01-30T11:47:02;12.70;;;12.00;;
53961;SDS011;39868;53.398;6.564;2024-01-30T11:49:30;13.55;;;12.50;;
53961;SDS011;39868;53.398;6.564;2024-01-30T11:51:57;14.13;;;13.25;;
53961;SDS011;39868;53.398;6.564;2024-01-30T11:54:25;13.60;;;12.77;;
53961;SDS011;39868;53.398;6.564;2024-01-30T11:56:52;13.82;;;12.85;;
53961;SDS011;39868;53.398;6.564;2024-01-30T11:59:20;14.35;;;13.23;;
53961;SDS011;39868;53.398;6.564;2024-01-30T12:01:47;14.00;;;13.05;;
53961;SDS011;39868;53.398;6.564;2024-01-30T12:04:15;13.55;;;12.75;;
53961;SDS011;39868;53.398;6.564;2024-01-30T12:06:43;13.10;;;12.40;;
53961;SDS011;39868;53.398;6.564;2024-01-30T12:09:10;12.50;;;11.88;;
53961;SDS011;39868;53.398;6.564;2024-01-30T12:11:43;13.00;;;12.07;;
53961;SDS011;39868;53.398;6.564;2024-01-30T12:14:12;13.30;;;12.50;;
53961;SDS011;39868;53.398;6.564;2024-01-30T12:16:40;13.05;;;12.18;;
53961;SDS011;39868;53.398;6.564;2024-01-30T12:19:08;13.18;;;12.27;;
53961;SDS011;39868;53.398;6.564;2024-01-30T12:21:35;13.82;;;12.48;;
53961;SDS011;39868;53.398;6.564;2024-01-30T12:24:04;13.45;;;12.35;;
53961;SDS011;39868;53.398;6.564;2024-01-30T12:26:34;12.73;;;11.60;;
53961;SDS011;39868;53.398;6.564;2024-01-30T12:29:03;12.30;;;11.60;;
53961;SDS011;39868;53.398;6.564;2024-01-30T12:31:31;11.75;;;11.13;;
53961;SDS011;39868;53.398;6.564;2024-01-30T12:34:00;11.93;;;11.25;;
53961;SDS011;39868;53.398;6.564;2024-01-30T12:36:28;11.80;;;11.13;;
53961;SDS011;39868;53.398;6.564;2024-01-30T12:38:59;12.00;;;11.38;;
53961;SDS011;39868;53.398;6.564;2024-01-30T12:41:27;13.48;;;12.48;;
53961;SDS011;39868;53.398;6.564;2024-01-30T12:43:57;12.10;;;11.55;;
53961;SDS011;39868;53.398;6.564;2024-01-30T12:46:25;12.45;;;11.60;;
53961;SDS011;39868;53.398;6.564;2024-01-30T12:48:56;11.48;;;10.98;;
53961;SDS011;39868;53.398;6.564;2024-01-30T12:51:24;12.98;;;12.18;;
53961;SDS011;39868;53.398;6.564;2024-01-30T12:53:51;12.20;;;11.55;;
53961;SDS011;39868;53.398;6.564;2024-01-30T12:56:18;12.45;;;11.80;;
53961;SDS011;39868;53.398;6.564;2024-01-30T12:58:46;11.68;;;11.07;;
53961;SDS011;39868;53.398;6.564;2024-01-30T13:01:17;12.18;;;11.68;;
53961;SDS011;39868;53.398;6.564;2024-01-30T13:03:44;13.27;;;12.35;;
53961;SDS011;39868;53.398;6.564;2024-01-30T13:06:12;12.23;;;11.60;;
53961;SDS011;39868;53.398;6.564;2024-01-30T13:08:40;12.23;;;11.63;;
53961;SDS011;39868;53.398;6.564;2024-01-30T13:11:07;12.82;;;12.07;;
53961;SDS011;39868;53.398;6.564;2024-01-30T13:13:45;12.88;;;12.07;;
53961;SDS011;39868;53.398;6.564;2024-01-30T13:16:13;12.10;;;11.50;;
53961;SDS011;39868;53.398;6.564;2024-01-30T13:18:40;12.45;;;11.80;;
53961;SDS011;39868;53.398;6.564;2024-01-30T13:21:08;12.07;;;11.50;;
53961;SDS011;39868;53.398;6.564;2024-01-30T13:23:35;11.85;;;11.18;;
53961;SDS011;39868;53.398;6.564;2024-01-30T13:26:02;12.60;;;11.88;;
53961;SDS011;39868;53.398;6.564;2024-01-30T13:28:30;12.43;;;11.82;;
53961;SDS011;39868;53.398;6.564;2024-01-30T13:30:57;12.05;;;11.55;;
53961;SDS011;39868;53.398;6.564;2024-01-30T13:33:27;12.23;;;11.63;;
53961;SDS011;39868;53.398;6.564;2024-01-30T13:35:55;13.23;;;12.30;;
53961;SDS011;39868;53.398;6.564;2024-01-30T13:38:22;12.50;;;11.68;;
53961;SDS011;39868;53.398;6.564;2024-01-30T13:40:49;12.43;;;11.55;;
53961;SDS011;39868;53.398;6.564;2024-01-30T13:43:16;12.32;;;11.65;;
53961;SDS011;39868;53.398;6.564;2024-01-30T13:45:44;12.50;;;11.90;;
53961;SDS011;39868;53.398;6.564;2024-01-30T13:48:12;13.13;;;12.32;;
53961;SDS011;39868;53.398;6.564;2024-01-30T13:50:39;12.88;;;12.18;;
53961;SDS011;39868;53.398;6.564;2024-01-30T13:53:07;12.63;;;11.82;;
53961;SDS011;39868;53.398;6.564;2024-01-30T13:55:34;12.75;;;11.85;;
53961;SDS011;39868;53.398;6.564;2024-01-30T13:58:01;12.98;;;12.18;;
53961;SDS011;39868;53.398;6.564;2024-01-30T14:00:29;14.30;;;13.20;;
53961;SDS011;39868;53.398;6.564;2024-01-30T14:02:56;17.95;;;16.48;;
53961;SDS011;39868;53.398;6.564;2024-01-30T14:05:25;13.95;;;13.25;;
53961;SDS011;39868;53.398;6.564;2024-01-30T14:07:54;12.93;;;12.23;;
53961;SDS011;39868;53.398;6.564;2024-01-30T14:10:23;12.90;;;12.10;;
53961;SDS011;39868;53.398;6.564;2024-01-30T14:12:50;13.13;;;12.38;;
53961;SDS011;39868;53.398;6.564;2024-01-30T14:15:18;12.10;;;11.60;;
53961;SDS011;39868;53.398;6.564;2024-01-30T14:17:54;12.05;;;11.35;;
53961;SDS011;39868;53.398;6.564;2024-01-30T14:20:22;12.52;;;11.93;;
53961;SDS011;39868;53.398;6.564;2024-01-30T14:22:50;12.25;;;11.75;;
53961;SDS011;39868;53.398;6.564;2024-01-30T14:25:18;12.60;;;12.00;;
53961;SDS011;39868;53.398;6.564;2024-01-30T14:27:46;12.63;;;12.02;;